Time;durP1;ratioP1;P1;durP2;ratioP2;P2;SDS_P1;SDS_P2;PMS_P1;PMS_P2;Temp;Humidity;BMP_temperature;BMP_pressure;BME280_temperature;BME280_humidity;BME280_pressure;Samples;Min_cycle;Max_cycle;Signal;HPM_P1;HPM_P2
2021/04/18 00:00:58;;;;;;;1999.90;999.90;;;7.90;99.90;;;;;;5017757;28;20565;-82
2021/04/18 00:03:24;;;;;;;1999.90;999.90;;;7.90;99.90;;;;;;5020475;28;20189;-82
2021/04/18 00:05:50;;;;;;;1999.90;999.90;;;7.80;99.90;;;;;;5020528;28;20169;-82
2021/04/18 00:08:16;;;;;;;1999.90;999.90;;;7.80;99.90;;;;;;5019153;28;20216;-82
2021/04/18 00:10:42;;;;;;;1999.90;999.90;;;7.60;99.90;;;;;;5020242;28;20174;-82
2021/04/18 00:13:10;;;;;;;1999.90;999.90;;;7.60;99.90;;;;;;5020455;28;20397;-82
2021/04/18 00:15:39;;;;;;;1999.90;999.90;;;7.50;99.90;;;;;;5018788;28;20404;-84
2021/04/18 00:18:06;;;;;;;1999.90;999.90;;;7.40;99.90;;;;;;5018949;28;20557;-82
2021/04/18 00:20:31;;;;;;;1999.90;999.90;;;7.30;99.90;;;;;;5019287;28;20240;-82
2021/04/18 00:22:57;;;;;;;1999.90;999.90;;;7.30;99.90;;;;;;5020277;28;20169;-82
2021/04/18 00:25:23;;;;;;;1999.90;999.90;;;7.20;99.90;;;;;;5020023;28;20197;-82
2021/04/18 00:27:49;;;;;;;1999.90;999.90;;;7.10;99.90;;;;;;5020411;28;20193;-83
2021/04/18 00:30:17;;;;;;;1999.90;999.90;;;7.20;99.90;;;;;;5019606;28;20413;-83
2021/04/18 00:32:44;;;;;;;1999.90;999.90;;;7.20;99.90;;;;;;5020323;28;20165;-84
2021/04/18 00:35:11;;;;;;;1999.90;999.90;;;7.10;99.90;;;;;;5020427;28;20679;-82
2021/04/18 00:37:38;;;;;;;1999.90;999.90;;;7.10;99.90;;;;;;5020795;28;20205;-82
2021/04/18 00:40:12;;;;;;;1999.90;999.90;;;7.10;99.90;;;;;;5018907;28;20197;-82
2021/04/18 00:42:38;;;;;;;1999.90;999.90;;;7.10;99.90;;;;;;5020641;28;20204;-82
2021/04/18 00:45:06;;;;;;;1999.90;999.90;;;7.00;99.90;;;;;;5019742;28;20166;-83
2021/04/18 00:47:32;;;;;;;1999.90;999.90;;;7.10;99.90;;;;;;5020756;28;20201;-82
2021/04/18 00:50:00;;;;;;;1999.90;999.90;;;7.10;99.90;;;;;;5021296;28;20240;-83
2021/04/18 00:52:25;;;;;;;1999.90;999.90;;;7.20;99.90;;;;;;5020231;28;20166;-84
2021/04/18 00:54:51;;;;;;;1999.90;999.90;;;7.20;99.90;;;;;;5021132;28;20181;-82
2021/04/18 00:57:17;;;;;;;1999.90;999.90;;;7.30;99.90;;;;;;5020913;28;20613;-82
2021/04/18 00:59:44;;;;;;;1999.90;999.90;;;7.10;99.90;;;;;;5021100;28;20964;-84
2021/04/18 01:02:09;;;;;;;1999.90;999.90;;;7.00;99.90;;;;;;5021378;28;20644;-82
2021/04/18 01:04:35;;;;;;;1999.90;999.90;;;7.00;99.90;;;;;;5019906;28;20166;-82
2021/04/18 01:07:01;;;;;;;1999.90;999.90;;;6.80;99.90;;;;;;5021390;28;20197;-82
2021/04/18 01:09:29;;;;;;;1999.90;999.90;;;6.80;99.90;;;;;;5020619;28;20721;-82
2021/04/18 01:11:55;;;;;;;1999.90;999.90;;;6.90;99.90;;;;;;5020278;28;20162;-82
2021/04/18 01:14:21;;;;;;;1999.90;999.90;;;7.00;99.90;;;;;;5021325;28;20166;-82
2021/04/18 01:16:46;;;;;;;1999.90;999.90;;;7.00;99.90;;;;;;5021537;28;20285;-82
2021/04/18 01:19:12;;;;;;;1999.90;999.90;;;6.80;99.90;;;;;;5020771;28;20189;-83
2021/04/18 01:21:38;;;;;;;1999.90;999.90;;;6.80;99.90;;;;;;5021548;28;20225;-83
2021/04/18 01:24:05;;;;;;;1999.90;999.90;;;6.80;99.90;;;;;;5020813;28;20803;-83
2021/04/18 01:26:32;;;;;;;1999.90;999.90;;;6.80;99.90;;;;;;5020383;28;20182;-83
2021/04/18 01:28:58;;;;;;;1999.90;999.90;;;6.80;99.90;;;;;;5023883;28;20632;-82
2021/04/18 01:31:23;;;;;;;1999.90;999.90;;;6.80;99.90;;;;;;5024714;28;20166;-83
2021/04/18 01:33:50;;;;;;;1999.90;999.90;;;6.80;99.90;;;;;;5025074;28;20653;-82
2021/04/18 01:36:16;;;;;;;1999.90;999.90;;;6.80;99.90;;;;;;5024601;28;20174;-82
2021/04/18 01:38:42;;;;;;;1999.90;999.90;;;6.90;99.90;;;;;;5024638;28;20197;-82
2021/04/18 01:41:08;;;;;;;1999.90;999.90;;;6.90;99.90;;;;;;5022864;28;20229;-82
2021/04/18 01:43:37;;;;;;;1999.90;999.90;;;6.90;99.90;;;;;;5023942;28;20158;-83
2021/04/18 01:46:03;;;;;;;1999.90;999.90;;;6.90;99.90;;;;;;5023889;28;20162;-82
2021/04/18 01:48:28;;;;;;;1999.90;999.90;;;7.00;99.90;;;;;;5022567;28;20184;-82
2021/04/18 01:50:54;;;;;;;1999.90;999.90;;;7.00;99.90;;;;;;5019563;28;20184;-83
2021/04/18 01:53:20;;;;;;;1999.90;999.90;;;7.00;99.90;;;;;;5019948;28;20178;-82
2021/04/18 01:55:46;;;;;;;1999.90;999.90;;;7.10;99.90;;;;;;5020754;28;20253;-82
2021/04/18 01:58:11;;;;;;;1999.90;999.90;;;7.00;99.90;;;;;;5019556;28;20432;-82
2021/04/18 02:00:37;;;;;;;1999.90;999.90;;;7.10;99.90;;;;;;5020436;28;20405;-83
2021/04/18 02:03:03;;;;;;;1999.90;999.90;;;7.20;99.90;;;;;;5021323;28;20644;-82
2021/04/18 02:05:30;;;;;;;1999.90;999.90;;;7.10;99.90;;;;;;5021953;28;20170;-83
2021/04/18 02:07:57;;;;;;;1999.90;999.90;;;7.20;99.90;;;;;;5021349;28;20424;-83
2021/04/18 02:10:23;;;;;;;1999.90;999.90;;;7.30;99.90;;;;;;5023201;28;20212;-82
2021/04/18 02:12:49;;;;;;;1999.90;999.90;;;7.40;99.90;;;;;;5022444;28;20166;-82
2021/04/18 02:15:15;;;;;;;1999.90;999.90;;;7.40;99.90;;;;;;5021707;28;20262;-82
2021/04/18 02:17:41;;;;;;;1999.90;999.90;;;7.40;99.90;;;;;;5021289;28;20515;-83
2021/04/18 02:20:08;;;;;;;1999.90;999.90;;;7.40;99.90;;;;;;5021067;28;20240;-82
2021/04/18 02:22:34;;;;;;;1999.90;999.90;;;7.40;99.90;;;;;;5021389;28;20405;-82
2021/04/18 02:25:01;;;;;;;1999.90;999.90;;;7.40;99.90;;;;;;5020420;28;20162;-83
2021/04/18 02:27:27;;;;;;;1999.90;999.90;;;7.40;99.90;;;;;;5020846;28;20194;-82
2021/04/18 02:29:54;;;;;;;1999.90;999.90;;;7.40;99.90;;;;;;5022318;28;20204;-83
2021/04/18 02:32:21;;;;;;;1999.90;999.90;;;7.50;99.90;;;;;;5022191;28;20165;-82
2021/04/18 02:34:50;;;;;;;1999.90;999.90;;;7.40;99.90;;;;;;5023166;28;20528;-84
2021/04/18 02:37:16;;;;;;;1999.90;999.90;;;7.40;99.90;;;;;;5021281;28;20194;-82
2021/04/18 02:39:43;;;;;;;1999.90;999.90;;;7.50;99.90;;;;;;5022257;28;20244;-83
2021/04/18 02:42:09;;;;;;;1999.90;999.90;;;7.50;99.90;;;;;;5022453;28;20190;-82
2021/04/18 02:44:35;;;;;;;1999.90;999.90;;;7.50;99.90;;;;;;5021821;28;20168;-83
2021/04/18 02:47:01;;;;;;;1999.90;999.90;;;7.60;99.90;;;;;;5021984;28;20465;-82
2021/04/18 02:49:26;;;;;;;1999.90;999.90;;;7.60;99.90;;;;;;5021588;28;20189;-83
2021/04/18 02:51:52;;;;;;;1999.90;999.90;;;7.50;99.90;;;;;;5022438;28;20413;-83
2021/04/18 02:54:18;;;;;;;1999.90;999.90;;;7.50;99.90;;;;;;5020818;28;20174;-82
2021/04/18 02:56:44;;;;;;;1999.90;999.90;;;7.40;99.90;;;;;;5022348;28;20189;-83
2021/04/18 02:59:10;;;;;;;1999.90;999.90;;;7.40;99.90;;;;;;5021735;28;20224;-82
2021/04/18 03:01:36;;;;;;;1999.90;999.90;;;7.40;99.90;;;;;;5021118;28;20888;-82
2021/04/18 03:04:02;;;;;;;1999.90;999.90;;;7.50;99.90;;;;;;5022093;28;20408;-83
2021/04/18 03:06:28;;;;;;;1999.90;999.90;;;7.50;99.90;;;;;;5021459;28;20185;-83
2021/04/18 03:08:53;;;;;;;1999.90;999.90;;;7.50;99.90;;;;;;5023158;28;20170;-84
2021/04/18 03:11:19;;;;;;;1999.90;999.90;;;7.50;99.90;;;;;;5024256;28;20248;-84
2021/04/18 03:13:46;;;;;;;1999.90;999.90;;;7.50;99.90;;;;;;5025228;28;20173;-84
2021/04/18 03:16:12;;;;;;;1999.90;999.90;;;7.50;99.90;;;;;;5023567;28;20176;-83
2021/04/18 03:18:37;;;;;;;1999.90;999.90;;;7.50;99.90;;;;;;5023620;28;20194;-84
2021/04/18 03:21:04;;;;;;;1999.90;999.90;;;7.50;99.90;;;;;;5024496;28;20660;-83
2021/04/18 03:23:29;;;;;;;1999.90;999.90;;;7.50;99.90;;;;;;5023591;28;20200;-84
2021/04/18 03:25:55;;;;;;;1999.90;999.90;;;7.50;99.90;;;;;;5024607;28;20162;-85
2021/04/18 03:28:21;;;;;;;1999.90;999.90;;;7.60;99.90;;;;;;5024390;28;20192;-83
2021/04/18 03:30:47;;;;;;;1999.90;999.90;;;7.60;99.90;;;;;;5026090;28;20165;-83
2021/04/18 03:33:13;;;;;;;1999.90;999.90;;;7.50;99.90;;;;;;5026512;28;20633;-83
2021/04/18 03:35:39;;;;;;;1999.90;999.90;;;7.60;99.90;;;;;;5025905;28;20181;-84
2021/04/18 03:38:05;;;;;;;1999.90;999.90;;;7.50;99.90;;;;;;5025587;28;20197;-84
2021/04/18 03:40:31;;;;;;;1999.90;999.90;;;7.50;99.90;;;;;;5025999;28;20166;-84
2021/04/18 03:42:57;;;;;;;1999.90;999.90;;;7.50;99.90;;;;;;5025204;28;20169;-82
2021/04/18 03:45:23;;;;;;;1999.90;999.90;;;7.50;99.90;;;;;;5026972;28;20157;-84
2021/04/18 03:47:49;;;;;;;1999.90;999.90;;;7.50;99.90;;;;;;5026352;28;20188;-83
2021/04/18 03:50:16;;;;;;;1999.90;999.90;;;7.60;99.90;;;;;;5026312;28;20181;-84
2021/04/18 03:52:43;;;;;;;1999.90;999.90;;;7.50;99.90;;;;;;5027000;28;20177;-84
2021/04/18 03:55:09;;;;;;;1999.90;999.90;;;7.50;99.90;;;;;;5027809;28;20169;-84
2021/04/18 03:57:35;;;;;;;1999.90;999.90;;;7.50;99.90;;;;;;5024639;28;20249;-83
2021/04/18 04:00:00;;;;;;;1999.90;999.90;;;7.50;99.90;;;;;;5023622;28;20225;-84
2021/04/18 04:02:26;;;;;;;1999.90;999.90;;;7.60;99.90;;;;;;5022784;28;20176;-83
2021/04/18 04:04:52;;;;;;;1999.90;999.90;;;7.50;99.90;;;;;;5024766;28;20166;-83
2021/04/18 04:07:17;;;;;;;1999.90;999.90;;;7.60;99.90;;;;;;5025644;28;20197;-83
2021/04/18 04:09:46;;;;;;;1999.90;999.90;;;7.60;99.90;;;;;;5024517;28;20204;-83
2021/04/18 04:12:12;;;;;;;1999.90;999.90;;;7.60;99.90;;;;;;5024832;28;20173;-83
2021/04/18 04:14:37;;;;;;;1999.90;999.90;;;7.70;99.90;;;;;;5024851;28;20200;-83
2021/04/18 04:17:03;;;;;;;1999.90;999.90;;;7.60;99.90;;;;;;5022150;28;20201;-82
2021/04/18 04:19:29;;;;;;;1999.90;999.90;;;7.60;99.90;;;;;;5023598;28;20194;-83
2021/04/18 04:21:55;;;;;;;1999.90;999.90;;;7.60;99.90;;;;;;5024493;28;20407;-82
2021/04/18 04:24:20;;;;;;;1999.90;999.90;;;7.60;99.90;;;;;;5023369;28;20186;-82
2021/04/18 04:26:46;;;;;;;1999.90;999.90;;;7.50;99.90;;;;;;5023002;28;20182;-83
2021/04/18 04:29:12;;;;;;;1999.90;999.90;;;7.40;99.90;;;;;;5022849;28;20173;-82
2021/04/18 04:31:38;;;;;;;1999.90;999.90;;;7.50;99.90;;;;;;5022163;28;20170;-84
2021/04/18 04:34:04;;;;;;;1999.90;999.90;;;7.40;99.90;;;;;;5021698;28;20166;-82
2021/04/18 04:36:29;;;;;;;1999.90;999.90;;;7.50;99.90;;;;;;5022213;28;20428;-83
2021/04/18 04:38:55;;;;;;;1999.90;999.90;;;7.40;99.90;;;;;;5022949;28;20194;-83
2021/04/18 04:41:21;;;;;;;1999.90;999.90;;;7.40;99.90;;;;;;5023336;28;20205;-84
2021/04/18 04:43:47;;;;;;;1999.90;999.90;;;7.30;99.90;;;;;;5021613;28;20181;-83
2021/04/18 04:46:13;;;;;;;1999.90;999.90;;;7.30;99.90;;;;;;5021314;28;20551;-83
2021/04/18 04:48:40;;;;;;;1999.90;999.90;;;7.30;99.90;;;;;;5021261;28;20185;-84
2021/04/18 04:51:06;;;;;;;1999.90;999.90;;;7.30;99.90;;;;;;5022710;28;20157;-82
2021/04/18 04:53:31;;;;;;;1999.90;999.90;;;7.40;99.90;;;;;;5022999;28;20712;-84
2021/04/18 04:55:57;;;;;;;1999.90;999.90;;;7.40;99.90;;;;;;5022970;28;20202;-83
2021/04/18 04:58:23;;;;;;;1999.90;999.90;;;7.40;99.90;;;;;;5022202;28;20209;-84
2021/04/18 05:00:48;;;;;;;1999.90;999.90;;;7.40;99.90;;;;;;5024126;28;20612;-84
2021/04/18 05:03:14;;;;;;;1999.90;999.90;;;7.40;99.90;;;;;;5030396;28;20656;-84
2021/04/18 05:05:40;;;;;;;1999.90;999.90;;;7.40;99.90;;;;;;5030348;28;20172;-84
2021/04/18 05:08:06;;;;;;;1999.90;999.90;;;7.40;99.90;;;;;;5029456;28;20187;-83
2021/04/18 05:10:31;;;;;;;1999.90;999.90;;;7.40;99.90;;;;;;5030291;28;20841;-83
2021/04/18 05:12:57;;;;;;;1999.90;999.90;;;7.40;99.90;;;;;;5030256;28;20220;-83
2021/04/18 05:15:23;;;;;;;1999.90;999.90;;;7.40;99.90;;;;;;5029251;28;20229;-82
2021/04/18 05:17:50;;;;;;;1999.90;999.90;;;7.50;99.90;;;;;;5030877;28;20959;-84
2021/04/18 05:20:17;;;;;;;1999.90;999.90;;;7.50;99.90;;;;;;5028644;28;20472;-84
2021/04/18 05:22:43;;;;;;;1999.90;999.90;;;7.50;99.90;;;;;;5027719;28;20166;-84
2021/04/18 05:25:10;;;;;;;1999.90;999.90;;;7.50;99.90;;;;;;5028032;28;20272;-83
2021/04/18 05:27:36;;;;;;;1999.90;999.90;;;7.50;99.90;;;;;;5029159;28;20192;-84
2021/04/18 05:30:03;;;;;;;1999.90;999.90;;;7.60;99.90;;;;;;5030719;28;20201;-84
2021/04/18 05:32:28;;;;;;;1999.90;999.90;;;7.60;99.90;;;;;;5031881;28;20184;-83
2021/04/18 05:34:54;;;;;;;1999.90;999.90;;;7.50;99.90;;;;;;5031938;28;20636;-84
2021/04/18 05:37:20;;;;;;;1999.90;999.90;;;7.50;99.90;;;;;;5031493;28;20185;-84
2021/04/18 05:39:45;;;;;;;1999.90;999.90;;;7.50;99.90;;;;;;5030678;28;20272;-83
2021/04/18 05:42:11;;;;;;;1999.90;999.90;;;7.50;99.90;;;;;;5029508;28;20161;-84
2021/04/18 05:44:37;;;;;;;1999.90;999.90;;;7.50;99.90;;;;;;5030076;28;20162;-84
2021/04/18 05:47:03;;;;;;;1999.90;999.90;;;7.50;99.90;;;;;;5028357;28;20596;-84
2021/04/18 05:49:29;;;;;;;1999.90;999.90;;;7.50;99.90;;;;;;5028891;28;20186;-83
2021/04/18 05:51:55;;;;;;;1999.90;999.90;;;7.40;99.90;;;;;;5029462;28;20181;-84
2021/04/18 05:54:20;;;;;;;1999.90;999.90;;;7.40;99.90;;;;;;5028431;28;20201;-84
2021/04/18 05:56:46;;;;;;;1999.90;999.90;;;7.40;99.90;;;;;;5029265;28;20189;-84
2021/04/18 05:59:12;;;;;;;1999.90;999.90;;;7.30;99.90;;;;;;5026846;28;20280;-84
2021/04/18 06:01:38;;;;;;;1999.90;999.90;;;7.40;99.90;;;;;;5030005;28;20405;-82
2021/04/18 06:04:03;;;;;;;1999.90;999.90;;;7.30;99.90;;;;;;5029074;28;20170;-83
2021/04/18 06:06:29;;;;;;;1999.90;999.90;;;7.30;99.90;;;;;;5026103;28;20182;-83
2021/04/18 06:08:55;;;;;;;1999.90;999.90;;;7.30;99.90;;;;;;5025145;28;20431;-82
2021/04/18 06:11:21;;;;;;;1999.90;999.90;;;7.30;99.90;;;;;;5025183;28;20169;-84
2021/04/18 06:13:48;;;;;;;1999.90;999.90;;;7.30;99.90;;;;;;5022235;28;20413;-83
2021/04/18 06:16:14;;;;;;;1999.90;999.90;;;7.40;99.90;;;;;;5020627;28;20916;-82
2021/04/18 06:18:40;;;;;;;1999.90;999.90;;;7.30;99.90;;;;;;5022591;28;20208;-82
2021/04/18 06:21:06;;;;;;;1999.90;999.90;;;7.40;99.90;;;;;;5022700;28;20411;-82
2021/04/18 06:23:32;;;;;;;1999.90;999.90;;;7.30;99.90;;;;;;5022505;28;20181;-82
2021/04/18 06:25:58;;;;;;;1999.90;999.90;;;7.40;99.90;;;;;;5022085;28;20194;-82
2021/04/18 06:28:23;;;;;;;1999.90;999.90;;;7.50;99.90;;;;;;5021923;28;20170;-82
2021/04/18 06:30:49;;;;;;;1999.90;999.90;;;7.50;99.90;;;;;;5022158;28;20162;-84
2021/04/18 06:33:16;;;;;;;1999.90;999.90;;;7.60;99.90;;;;;;5020696;28;20533;-83
2021/04/18 06:35:42;;;;;;;1999.90;999.90;;;7.70;99.90;;;;;;5022480;28;20161;-82
2021/04/18 06:38:08;;;;;;;1999.90;999.90;;;7.70;99.90;;;;;;5022508;28;20185;-83
2021/04/18 06:40:34;;;;;;;1999.90;999.90;;;7.80;99.90;;;;;;5022387;28;20177;-83
2021/04/18 06:43:02;;;;;;;1999.90;999.90;;;7.90;99.90;;;;;;5021510;28;20166;-82
2021/04/18 06:45:28;;;;;;;1999.90;999.90;;;7.90;99.90;;;;;;5021397;28;20177;-83
2021/04/18 06:47:54;;;;;;;1999.90;999.90;;;8.00;99.90;;;;;;5020831;28;20186;-84
2021/04/18 06:50:20;;;;;;;1999.90;999.90;;;8.00;99.90;;;;;;5020969;28;20559;-82
2021/04/18 06:52:46;;;;;;;1999.90;999.90;;;8.10;99.90;;;;;;5021661;28;20408;-82
2021/04/18 06:55:13;;;;;;;1999.90;999.90;;;8.10;99.90;;;;;;5022281;28;20488;-82
2021/04/18 06:57:39;;;;;;;1999.90;999.90;;;8.10;99.90;;;;;;5021966;28;20185;-82
2021/04/18 07:00:09;;;;;;;1999.90;999.90;;;8.10;99.90;;;;;;5021796;28;20196;-83
2021/04/18 07:02:35;;;;;;;1999.90;999.90;;;8.10;99.90;;;;;;5020814;28;20170;-84
2021/04/18 07:05:10;;;;;;;1999.90;999.90;;;8.10;99.90;;;;;;5020836;28;20186;-84
2021/04/18 07:07:40;;;;;;;1999.90;999.90;;;8.30;99.90;;;;;;5021149;28;20720;-82
2021/04/18 07:10:12;;;;;;;1999.90;999.90;;;8.30;99.90;;;;;;5022182;28;20173;-82
2021/04/18 07:12:37;;;;;;;1999.90;999.90;;;8.30;99.90;;;;;;5023705;28;20155;-84
2021/04/18 07:15:05;;;;;;;1999.90;999.90;;;8.30;99.90;;;;;;5024046;28;20525;-83
2021/04/18 07:17:30;;;;;;;1999.90;999.90;;;8.40;99.90;;;;;;5005880;28;20528;-83
2021/04/18 07:20:10;;;;;;;1999.90;999.90;;;8.50;99.90;;;;;;5021087;28;20232;-83
2021/04/18 07:22:36;;;;;;;1999.90;999.90;;;8.60;99.90;;;;;;5021023;28;20610;-84
2021/04/18 07:25:03;;;;;;;1999.90;999.90;;;8.70;99.90;;;;;;5019408;28;20189;-85
2021/04/18 07:27:49;;;;;;;1999.90;999.90;;;8.80;99.90;;;;;;5019943;28;20186;-83
2021/04/18 07:30:17;;;;;;;1999.90;999.90;;;8.80;99.90;;;;;;5019262;28;20581;-84
2021/04/18 07:32:44;;;;;;;1999.90;999.90;;;8.80;99.90;;;;;;5021253;28;20228;-83
2021/04/18 07:35:37;;;;;;;1999.90;999.90;;;8.90;99.90;;;;;;5021190;28;20193;-83
2021/04/18 07:38:19;;;;;;;1999.90;999.90;;;8.90;99.90;;;;;;5021760;28;20189;-83
2021/04/18 07:40:47;;;;;;;1999.90;999.90;;;9.00;99.90;;;;;;5021012;28;20208;-83
2021/04/18 07:43:14;;;;;;;1999.90;999.90;;;9.00;99.90;;;;;;5020515;28;20162;-84
2021/04/18 07:45:42;;;;;;;1999.90;999.90;;;9.10;99.90;;;;;;5021317;28;20242;-84
2021/04/18 07:48:13;;;;;;;1999.90;999.90;;;9.10;99.90;;;;;;5021429;28;20202;-84
2021/04/18 07:50:40;;;;;;;1999.90;999.90;;;9.20;99.90;;;;;;5088608;23;20221;-81
2021/04/18 07:53:07;;;;;;;1999.90;999.90;;;9.20;99.90;;;;;;5000751;28;20201;-83
2021/04/18 07:55:34;;;;;;;1999.90;999.90;;;9.30;99.90;;;;;;5017967;28;20692;-82
2021/04/18 07:58:00;;;;;;;1999.90;999.90;;;9.30;99.90;;;;;;5017706;28;20212;-83
2021/04/18 08:00:26;;;;;;;1999.90;999.90;;;9.40;99.90;;;;;;5018277;28;20271;-83
2021/04/18 08:02:53;;;;;;;1999.90;999.90;;;9.50;99.90;;;;;;5000397;28;20166;-83
2021/04/18 08:05:22;;;;;;;1999.90;999.90;;;9.60;99.90;;;;;;5018062;28;20173;-83
2021/04/18 08:08:05;;;;;;;1999.90;999.90;;;9.70;99.90;;;;;;5000055;28;20664;-83
2021/04/18 08:10:40;;;;;;;1999.90;999.90;;;9.90;99.90;;;;;;4999104;28;20169;-83
2021/04/18 08:13:20;;;;;;;1999.90;999.90;;;9.90;99.90;;;;;;5000060;28;20596;-83
2021/04/18 08:15:46;;;;;;;1999.90;999.90;;;10.00;99.90;;;;;;5017726;28;20146;-83
2021/04/18 08:18:15;;;;;;;1999.90;999.90;;;9.90;99.90;;;;;;5000740;28;20196;-83
2021/04/18 08:20:44;;;;;;;1999.90;999.90;;;9.90;99.90;;;;;;4999922;28;20166;-83
2021/04/18 08:23:14;;;;;;;1999.90;999.90;;;9.90;99.90;;;;;;5017811;28;20170;-83
2021/04/18 08:25:59;;;;;;;1999.90;999.90;;;10.00;99.90;;;;;;5017311;28;20164;-83
2021/04/18 08:28:24;;;;;;;1999.90;999.90;;;10.00;99.90;;;;;;5017566;28;20162;-83
2021/04/18 08:31:08;;;;;;;1999.90;999.90;;;9.90;99.90;;;;;;5017499;28;20162;-83
2021/04/18 08:33:40;;;;;;;1999.90;999.90;;;10.00;99.90;;;;;;4999804;28;20174;-83
2021/04/18 08:36:12;;;;;;;1999.90;999.90;;;10.00;99.90;;;;;;5017046;28;20162;-83
2021/04/18 08:38:38;;;;;;;1999.90;999.90;;;10.00;99.90;;;;;;5017392;28;20257;-83
2021/04/18 08:41:14;;;;;;;1999.90;999.90;;;10.10;99.90;;;;;;5017519;28;20212;-83
2021/04/18 08:43:47;;;;;;;1999.90;999.90;;;10.30;99.90;;;;;;5000940;28;20629;-83
2021/04/18 08:46:20;;;;;;;1999.90;999.90;;;10.40;99.90;;;;;;5017402;28;20564;-83
2021/04/18 08:48:45;;;;;;;1999.90;999.90;;;10.50;99.90;;;;;;4999156;28;20519;-84
2021/04/18 08:51:11;;;;;;;1999.90;999.90;;;10.70;99.90;;;;;;5017233;28;20159;-83
2021/04/18 08:53:56;;;;;;;1999.90;999.90;;;10.80;99.90;;;;;;4999683;28;20224;-83
2021/04/18 08:56:42;;;;;;;1999.90;999.90;;;10.90;99.90;;;;;;5017248;28;20229;-83
2021/04/18 08:59:16;;;;;;;1999.90;999.90;;;11.10;99.90;;;;;;5017045;28;20213;-83
2021/04/18 09:02:05;;;;;;;1999.90;999.90;;;11.20;99.90;;;;;;5017152;28;20176;-83
2021/04/18 09:04:53;;;;;;;1999.90;999.90;;;11.20;99.90;;;;;;5017016;28;20521;-83
2021/04/18 09:07:24;;;;;;;1999.90;999.90;;;11.30;99.90;;;;;;5016535;28;20184;-83
2021/04/18 09:09:50;;;;;;;1999.90;999.90;;;11.40;99.90;;;;;;5016624;28;20516;-83
2021/04/18 09:12:17;;;;;;;1999.90;999.90;;;11.50;99.90;;;;;;5016753;28;20185;-83
2021/04/18 09:14:48;;;;;;;1999.90;999.90;;;11.50;99.90;;;;;;5016785;28;20174;-83
2021/04/18 09:17:22;;;;;;;1999.90;999.90;;;11.60;99.90;;;;;;5015973;28;20201;-82
2021/04/18 09:20:09;;;;;;;1999.90;999.90;;;11.70;99.90;;;;;;5016332;28;20189;-83
2021/04/18 09:22:47;;;;;;;1999.90;999.90;;;11.80;99.90;;;;;;5016474;28;20506;-82
2021/04/18 09:25:18;;;;;;;1999.90;999.90;;;11.80;99.90;;;;;;4998227;28;20158;-82
2021/04/18 09:27:52;;;;;;;1999.90;999.90;;;11.80;99.90;;;;;;5015271;28;20182;-82
2021/04/18 09:30:26;;;;;;;1999.90;999.90;;;11.90;99.90;;;;;;4998707;28;20162;-83
2021/04/18 09:32:57;;;;;;;1999.90;999.90;;;11.80;99.90;;;;;;5017076;28;20168;-83
2021/04/18 09:35:30;;;;;;;1999.90;999.90;;;11.90;99.90;;;;;;4998875;28;20182;-82
2021/04/18 09:38:01;;;;;;;1999.90;999.90;;;11.70;99.90;;;;;;5016959;28;20558;-82
2021/04/18 09:40:29;;;;;;;1999.90;999.90;;;11.60;99.90;;;;;;5017228;28;20194;-83
2021/04/18 09:43:07;;;;;;;1999.90;999.90;;;11.60;99.90;;;;;;5016687;28;20194;-83
2021/04/18 09:45:34;;;;;;;1999.90;999.90;;;11.60;99.90;;;;;;4999954;28;20229;-83
2021/04/18 09:48:16;;;;;;;1999.90;999.90;;;11.60;99.90;;;;;;5017821;28;20182;-83
2021/04/18 09:50:42;;;;;;;1999.90;999.90;;;11.70;99.90;;;;;;5020192;28;20300;-83
2021/04/18 09:53:22;;;;;;;1999.90;999.90;;;11.70;99.90;;;;;;5020164;28;20241;-83
2021/04/18 09:55:57;;;;;;;1999.90;999.90;;;11.70;99.90;;;;;;5021073;28;20154;-83
2021/04/18 09:58:29;;;;;;;1999.90;999.90;;;11.60;99.90;;;;;;5019431;28;20213;-83
2021/04/18 10:00:56;;;;;;;1999.90;999.90;;;11.50;99.90;;;;;;5020356;28;20169;-83
2021/04/18 10:03:21;;;;;;;1999.90;999.90;;;11.50;99.90;;;;;;5002679;28;20573;-83
2021/04/18 10:05:47;;;;;;;1999.90;999.90;;;11.50;99.90;;;;;;5020740;28;20170;-83
2021/04/18 10:08:20;;;;;;;1999.90;999.90;;;11.50;99.90;;;;;;5020006;28;20227;-83
2021/04/18 10:11:12;;;;;;;1999.90;999.90;;;11.50;99.90;;;;;;5002339;28;20166;-83
2021/04/18 10:13:55;;;;;;;1999.90;999.90;;;11.40;99.90;;;;;;4998891;28;20581;-83
2021/04/18 10:16:22;;;;;;;1999.90;999.90;;;11.50;99.90;;;;;;5002746;28;20736;-83
2021/04/18 10:19:05;;;;;;;1999.90;999.90;;;11.40;99.90;;;;;;5002454;28;20197;-83
2021/04/18 10:21:31;;;;;;;1999.90;999.90;;;11.40;99.90;;;;;;5019662;28;20193;-83
2021/04/18 10:23:56;;;;;;;1999.90;999.90;;;11.30;99.90;;;;;;5019859;28;20163;-82
2021/04/18 10:26:28;;;;;;;1999.90;999.90;;;11.30;99.90;;;;;;5019298;28;20210;-83
2021/04/18 10:28:55;;;;;;;1999.90;999.90;;;11.20;99.90;;;;;;5002350;28;20182;-82
2021/04/18 10:31:24;;;;;;;1999.90;999.90;;;11.10;99.90;;;;;;5018825;28;20217;-82
2021/04/18 10:33:50;;;;;;;1999.90;999.90;;;11.00;99.90;;;;;;5018546;28;20561;-83
2021/04/18 10:36:16;;;;;;;1999.90;999.90;;;10.90;99.90;;;;;;5019019;28;20181;-82
2021/04/18 10:38:43;;;;;;;1999.90;999.90;;;10.90;99.90;;;;;;5018904;28;20225;-83
2021/04/18 10:41:12;;;;;;;1999.90;999.90;;;10.90;99.90;;;;;;5018626;28;20540;-83
2021/04/18 10:43:38;;;;;;;1999.90;999.90;;;10.90;99.90;;;;;;5000728;28;20664;-83
2021/04/18 10:46:04;;;;;;;1999.90;999.90;;;11.00;99.90;;;;;;5018093;28;20150;-83
2021/04/18 10:48:30;;;;;;;1999.90;999.90;;;11.10;99.90;;;;;;5017766;28;20162;-83
2021/04/18 10:50:56;;;;;;;1999.90;999.90;;;10.90;99.90;;;;;;5018610;28;20177;-83
2021/04/18 10:53:22;;;;;;;1999.90;999.90;;;10.80;99.90;;;;;;5017985;28;20158;-83
2021/04/18 10:55:48;;;;;;;1999.90;999.90;;;10.90;99.90;;;;;;5018758;28;20162;-83
2021/04/18 10:58:15;;;;;;;1999.90;999.90;;;11.00;99.90;;;;;;5000100;28;20561;-83
2021/04/18 11:00:42;;;;;;;1999.90;999.90;;;11.00;99.90;;;;;;5017504;28;20166;-83
2021/04/18 11:03:08;;;;;;;1999.90;999.90;;;11.00;99.90;;;;;;5018563;28;20189;-83
2021/04/18 11:05:34;;;;;;;1999.90;999.90;;;11.10;99.90;;;;;;5018104;28;20158;-83
2021/04/18 11:07:59;;;;;;;1999.90;999.90;;;11.20;99.90;;;;;;5001338;28;20222;-83
2021/04/18 11:10:25;;;;;;;1999.90;999.90;;;11.30;99.90;;;;;;5018201;28;20413;-83
2021/04/18 11:12:51;;;;;;;1999.90;999.90;;;11.40;99.90;;;;;;5000811;28;20634;-83
2021/04/18 11:15:23;;;;;;;1999.90;999.90;;;11.40;99.90;;;;;;5018426;28;20409;-83
2021/04/18 11:17:51;;;;;;;1999.90;999.90;;;11.50;99.90;;;;;;5018491;28;20194;-84
2021/04/18 11:20:18;;;;;;;1999.90;999.90;;;11.60;99.90;;;;;;5018111;28;20273;-83
2021/04/18 11:22:44;;;;;;;1999.90;999.90;;;11.60;99.90;;;;;;5016896;28;20221;-83
2021/04/18 11:25:19;;;;;;;1999.90;999.90;;;11.60;99.90;;;;;;5016858;28;20193;-83
2021/04/18 11:27:47;;;;;;;1999.90;999.90;;;11.80;99.90;;;;;;4999407;28;20212;-82
2021/04/18 11:30:25;;;;;;;1999.90;999.90;;;11.60;99.90;;;;;;4998965;28;20167;-82
2021/04/18 11:32:50;;;;;;;1999.90;999.90;;;11.60;99.90;;;;;;5016877;28;20584;-82
2021/04/18 11:35:16;;;;;;;1999.90;999.90;;;11.70;99.90;;;;;;4999200;28;20252;-83
2021/04/18 11:37:42;;;;;;;1999.90;999.90;;;11.70;99.90;;;;;;4999961;28;20284;-82
2021/04/18 11:40:39;;;;;;;1999.90;999.90;;;11.70;99.90;;;;;;4999521;28;20344;-83
2021/04/18 11:43:38;;;;;;;1999.90;999.90;;;11.70;99.90;;;;;;4999840;28;20196;-82
2021/04/18 11:46:06;;;;;;;1999.90;999.90;;;11.70;99.90;;;;;;5016624;28;20252;-83
2021/04/18 11:49:02;;;;;;;;;;;;;;;;;;;;;
2021/04/18 11:51:43;;;;;;;1999.90;999.90;;;11.80;99.90;;;;;;5011128;28;20705;-83
2021/04/18 11:54:12;;;;;;;1999.90;999.90;;;11.90;99.90;;;;;;5017093;28;20157;-83
2021/04/18 11:56:37;;;;;;;1999.90;999.90;;;12.00;99.90;;;;;;4999877;28;20281;-83
2021/04/18 11:59:06;;;;;;;1999.90;999.90;;;12.20;99.90;;;;;;5016905;28;20680;-83
2021/04/18 12:01:36;;;;;;;1999.90;999.90;;;12.30;99.90;;;;;;5017305;28;20165;-83
2021/04/18 12:04:03;;;;;;;1999.90;999.90;;;12.30;99.90;;;;;;5017314;28;20176;-83
2021/04/18 12:06:29;;;;;;;1999.90;999.90;;;12.30;99.90;;;;;;5017509;28;20178;-82
2021/04/18 12:09:00;;;;;;;1999.90;999.90;;;12.30;99.90;;;;;;5016885;28;20511;-83
2021/04/18 12:11:48;;;;;;;1999.90;999.90;;;12.40;99.60;;;;;;5017059;28;20614;-83